Terminal Aerodrome Forecast
Issued by NWS

Home | Current Version | Previous Version | Graphics & Text | Print | Product List | Glossary On
Versions: 1 2 3 4 5 6 7 8 9 10 11 12 13 14 15 16 17
322
FTUS43 KABR 070523
TAFPIR
TAF
KPIR 070523Z 0706/0806 29018KT P6SM SCT250
     FM071000 30020G30KT P6SM SCT250
     FM071400 30032G45KT P6SM BKN050
     FM080400 32028G36KT P6SM SKC=

USA.gov is the U.S. government's official web portal to all federal, state and local government web resources and services.